Cody, WY

9:50 PM MST on November 22, 2014 (GMT -0700)
Cody WY, Cody DITWIT Weather @5230 ft | Change Station
CLOSE
Current Station
Personal Weather Station
Location: Cody, WY
Elevation: 5135 ft
Nearby Weather Stations

Elev 5135 ft 44.49 °N, 108.99 °W | Updated 2 seconds ago

Clear
Clear
34.4 °F
Feels Like 34 °F
N
0.0
Wind Variable Wind from NNW
Gusts 9.0 mph

Today
High -- | Low -- °F
--% Chance of Precip.
Yesterday
High -- | Low -- °F
Precip. -- in
7:21 AM 4:42 PM
New Moon, 1% visible
Pressure 29.61 in
Visibility 10.0 miles
Clouds Clear
Windchill 34 °F
Dew Point 9 °F
Humidity 34%
Rainfall 0.00 in
Snow Depth Not available.
UV 0 out of 12
Pollen .10 out of 12
Air Quality Not available.
Flu Activity Not available.
METAR KCOD 230435Z 31011G16KT 230V050 10SM CLR 03/M13 A2961 RMK AO1

More Conditions Fewer Conditions

Pressure 29.61 in
Visibility 10.0 miles
Clouds Clear
Windchill 34 °F
Dew Point 9 °F
Humidity 34%
Rainfall 0.00 in
Snow Depth Not available.
UV 0 out of 12
Pollen .10 out of 12
Air Quality Not available.
Flu Activity Not available.
METAR KCOD 230435Z 31011G16KT 230V050 10SM CLR 03/M13 A2961 RMK AO1

More Conditions Fewer Conditions

10-Day Weather Forecast

Almanac

Astronomy

Nov. 22, 2014 Rise Set
Actual Time
Civil Twilight
Nautical Twilight
Astronomical Twilight
Moon
Length of Visible Light
Length of Day
Tomorrow will be .
, % of the Moon is Illuminated

Today's Extremes

State Highs State Lows

Community

WunderPhotos

Upload Photos

1,773,003 photos uploaded!

WunderBlogs® & News

Nearby

Air Quality

  Air Quality AQ Index Pollutant
Not available.

Snow Depth

Station Depth Elevation

Earthquake Activity

City Distance Mag. Time & Date
Minimum magnitude displayed is 2.5.

Coastal Water Temperatures

Place Temperature

Nearby Weather Stations